Stations météo

réclame
Mon MeteoGroup
Lons-Le-Saunier, France (7390): Température de l'air & dewpoint: 21.09.2020 09:00:00 - 27.09.2020 09:00:00 (CEST)Lons-Le-Saunier, France (7390): Vitesse du vent & gusts: 21.09.2020 09:00:00 - 27.09.2020 09:00:00 (CEST)Lons-Le-Saunier, France (7390): Direction du vent: 21.09.2020 09:00:00 - 27.09.2020 09:00:00 (CEST)Lons-Le-Saunier, France (7390): Quantités de précipitations: 21.09.2020 09:00:00 - 27.09.2020 09:00:00 (CEST)
Date & Time tt [°C] td [°C] ff [km/h] ff [knt] fx [km/h] fx [knt] dd rr [mm]
27.09.2020 09:00:00 7,1 6,4 22 12 40 22 SSW 3,0
27.09.2020 08:00:00 6,8 6,2 22 12 42 23 SSW 3,0
27.09.2020 07:00:00 6,6 6,0 21 12 37 20 SW 2,0
27.09.2020 06:00:00 6,7 5,8 17 9 32 17 SSW 2,4
27.09.2020 05:00:00 7,0 5,6 11 6 25 13 SSW 1,2
27.09.2020 04:00:00 7,6 5,4 9 5 17 9 S 0,4
27.09.2020 03:00:00 8,0 5,3 10 5 18 10 SSW 0,0
27.09.2020 02:00:00 8,0 5,3 9 5 21 11 SSW 0,0
27.09.2020 01:00:00 8,0 5,3 8 4 16 9 SSW 0,0
27.09.2020 00:00:00 8,0 5,3 6 4 11 6 SSE 0,0
26.09.2020 23:00:00 7,9 5,5 8 4 13 7 SSE 0,0
26.09.2020 22:00:00 7,8 5,9 4 2 12 6 S 0,0
26.09.2020 21:00:00 8,1 5,6 7 4 16 9 SSE 0,0
26.09.2020 20:00:00 8,3 5,6 10 5 16 9 SSE 0,0
26.09.2020 19:00:00 9,3 5,8 11 6 32 17 S 0,0
26.09.2020 18:00:00 10,1 6,1 6 4 25 14 SW 0,6
26.09.2020 17:00:00 11,7 6,6 9 5 21 12 S 0,0
26.09.2020 16:00:00 10,5 6,3 6 3 35 19 ESE 0,4
26.09.2020 15:00:00 11,2 4,6 20 11 36 20 W 0,0
26.09.2020 14:00:00 10,2 5,6 15 8 35 19 WSW 0,0
26.09.2020 13:00:00 9,3 6,4 21 11 34 18 SW 0,2
26.09.2020 12:00:00 8,9 6,0 23 12 39 21 SW 0,0
26.09.2020 11:00:00 9,1 6,5 19 10 29 16 SW 0,0
26.09.2020 10:00:00 8,3 5,8 19 10 34 18 SW 0,0
26.09.2020 09:00:00 7,8 5,8 18 10 30 16 SW 0,0
26.09.2020 08:00:00 7,2 5,3 17 9 32 17 SSW 0,0
26.09.2020 07:00:00 7,2 5,5 14 7 23 13 SSW 0,0
26.09.2020 06:00:00 7,1 5,2 14 8 23 13 SSW 0,0
26.09.2020 05:00:00 7,9 5,7 14 8 27 15 SW 0,0
26.09.2020 04:00:00 8,2 6,0 15 8 26 14 SW 0,0
26.09.2020 03:00:00 8,2 6,5 14 8 21 12 SW 0,0
26.09.2020 02:00:00 8,2 6,8 11 6 21 11 SSW 0,0
26.09.2020 01:00:00 8,2 6,8 9 5 22 12 SSW 0,0
26.09.2020 00:00:00 8,4 6,4 10 5 21 11 WSW 0,0
25.09.2020 23:00:00 8,7 6,1 13 7 24 13 W 0,0
25.09.2020 22:00:00 8,8 6,1 13 7 21 11 W 0,0
25.09.2020 21:00:00 8,4 5,9 10 6 31 17 W 0,2
25.09.2020 20:00:00 8,8 6,1 13 7 40 21 W 0,0
25.09.2020 19:00:00 9,7 5,9 16 9 32 17 W 0,0
25.09.2020 18:00:00 10,2 6,9 16 8 24 13 SW 0,0
25.09.2020 17:00:00 10,3 7,5 13 7 55 30 SW 0,6
25.09.2020 16:00:00 12,9 8,0 17 9 31 17 W 0,0
25.09.2020 15:00:00 9,6 7,4 22 12 46 25 WNW 3,4
25.09.2020 14:00:00 11,9 6,0 26 14 55 30 W 0,0
25.09.2020 13:00:00 11,2 6,3 36 20 66 35 WSW 0,0
25.09.2020 12:00:00 12,5 5,9 30 16 51 28 WSW 0,0
25.09.2020 11:00:00 11,1 6,6 16 8 40 22 SSW 0,0
25.09.2020 10:00:00 11,0 6,7 11 6 24 13 S 0,0
25.09.2020 09:00:00 10,6 6,0 13 7 24 13 SSW 0,0
25.09.2020 08:00:00 10,1 6,2 14 8 31 17 SSW 0,0
25.09.2020 07:00:00 10,4 7,6 19 10 29 16 SSW 0,0
25.09.2020 06:00:00 10,5 8,4 8 4 14 8 S 0,0
25.09.2020 05:00:00 10,7 8,6 9 5 27 15 S 0,2
25.09.2020 04:00:00 11,2 9,1 14 8 27 14 SSW 0,2
25.09.2020 03:00:00 11,4 9,5 17 9 30 16 SW 0,2
25.09.2020 02:00:00 11,8 10,4 14 8 51 28 SSW 1,2
25.09.2020 01:00:00 12,9 10,3 32 17 60 32 WSW 1,8
25.09.2020 00:00:00 15,6 12,3 10 5 29 16 S 0,8
24.09.2020 23:00:00 15,9 11,7 16 9 29 16 S 0,0
24.09.2020 22:00:00 15,2 12,3 13 7 29 16 S 0,0
24.09.2020 21:00:00 14,4 12,3 15 8 29 16 SSE 0,2
24.09.2020 20:00:00 13,8 12,4 11 6 22 12 SE 0,0
24.09.2020 19:00:00 - - - - - - - -
24.09.2020 18:00:00 16,1 12,6 26 14 56 31 WNW 0,0
24.09.2020 17:00:00 18,7 14,4 19 10 42 23 SSW 0,0
24.09.2020 16:00:00 18,6 14,5 19 11 37 20 S 0,0
24.09.2020 15:00:00 17,9 15,9 8 5 45 25 SSW 2,0
24.09.2020 14:00:00 20,4 13,4 27 15 54 29 SW 0,0
24.09.2020 13:00:00 21,6 12,2 32 18 52 28 SW 0,0
24.09.2020 12:00:00 21,6 13,5 23 12 46 25 SW 0,0
24.09.2020 11:00:00 20,6 13,3 25 14 39 21 SW 0,0
24.09.2020 10:00:00 19,0 14,0 9 5 19 10 S 0,0
24.09.2020 09:00:00 16,4 12,4 9 5 16 9 SE 0,0
24.09.2020 08:00:00 16,0 12,0 9 5 15 8 SE 0,0
24.09.2020 07:00:00 16,7 11,6 6 3 20 11 WSW 0,0
24.09.2020 06:00:00 17,2 11,7 12 7 27 14 WSW 0,0
24.09.2020 05:00:00 17,6 12,3 14 8 28 15 SW 0,0
24.09.2020 04:00:00 17,7 13,0 12 7 39 21 WSW 0,0
24.09.2020 03:00:00 18,5 13,1 24 13 45 25 WSW 0,0
24.09.2020 02:00:00 19,6 14,4 24 13 44 24 SW 0,0
24.09.2020 01:00:00 20,0 14,1 21 11 38 21 SSW 0,0
24.09.2020 00:00:00 20,4 13,4 21 11 39 21 S 0,0
23.09.2020 23:00:00 - - - - - - - -
23.09.2020 22:00:00 19,8 12,5 19 10 31 17 SSE 0,0
23.09.2020 21:00:00 18,9 12,6 13 7 23 12 SSE 0,0
23.09.2020 20:00:00 19,7 13,2 10 6 16 8 SE 0,0
23.09.2020 19:00:00 21,9 13,3 6 3 23 12 SSW 0,0
23.09.2020 18:00:00 23,2 13,4 12 7 22 12 SW 0,0
23.09.2020 17:00:00 23,3 12,9 12 7 24 13 SW 0,0
23.09.2020 16:00:00 22,2 12,7 10 6 22 12 S 0,0
23.09.2020 15:00:00 22,0 12,8 13 7 23 12 WSW 0,0
23.09.2020 14:00:00 20,6 13,3 11 6 23 13 SW 0,0
23.09.2020 13:00:00 19,8 13,5 14 7 23 13 SSW 0,0
23.09.2020 12:00:00 19,7 13,6 12 7 21 11 SW 0,0
23.09.2020 11:00:00 18,7 14,2 10 5 19 10 SSE 0,0
23.09.2020 10:00:00 17,2 15,0 8 5 14 7 S 0,0
23.09.2020 09:00:00 16,4 15,3 5 3 13 7 S 0,0
23.09.2020 08:00:00 15,8 15,2 8 4 17 9 SSW 0,0
23.09.2020 07:00:00 15,8 15,3 12 6 23 12 SW 0,0
23.09.2020 06:00:00 15,9 15,3 10 5 17 9 SW 0,2
23.09.2020 05:00:00 16,0 15,4 9 5 18 10 SW 0,0
23.09.2020 04:00:00 15,9 15,3 7 4 13 7 S 0,0
23.09.2020 03:00:00 15,8 15,0 7 4 14 8 SSW 0,4
23.09.2020 02:00:00 15,5 15,0 9 5 21 12 S 3,6
23.09.2020 01:00:00 15,7 14,9 14 7 24 13 S 3,4
23.09.2020 00:00:00 16,3 15,3 11 6 27 15 SSW 3,0
22.09.2020 23:00:00 17,3 15,3 10 5 22 12 S 0,2
22.09.2020 22:00:00 17,4 15,7 12 6 21 11 SSE 1,0
22.09.2020 21:00:00 18,4 14,9 11 6 18 10 SSE 0,0
22.09.2020 20:00:00 18,8 15,5 10 6 16 9 SSE 0,0
22.09.2020 19:00:00 - - - - - - - -
22.09.2020 18:00:00 22,2 14,8 14 8 28 15 W 0,0
22.09.2020 17:00:00 22,8 13,6 18 10 30 16 W 0,0
22.09.2020 16:00:00 24,3 14,7 14 7 29 15 W 0,0
22.09.2020 15:00:00 23,3 15,4 14 7 26 14 W 0,0
22.09.2020 14:00:00 22,8 14,6 9 5 25 13 SW 0,0
22.09.2020 13:00:00 22,3 15,2 10 6 26 14 WSW 0,0
22.09.2020 12:00:00 20,8 15,1 10 5 21 11 SW 0,0
22.09.2020 11:00:00 19,9 15,7 5 3 13 7 SW 0,0
22.09.2020 10:00:00 17,4 15,0 8 4 14 8 SSW 0,0
22.09.2020 09:00:00 16,9 15,1 5 3 11 6 WSW 0,0
22.09.2020 08:00:00 16,9 14,5 4 2 16 9 S 0,0
22.09.2020 07:00:00 16,4 14,4 5 3 11 6 SE 0,0
22.09.2020 06:00:00 16,3 14,5 9 5 12 6 SSE 0,0
22.09.2020 05:00:00 16,9 14,7 8 4 11 6 SE 0,0
22.09.2020 04:00:00 17,2 14,8 8 4 13 7 SE 0,0
22.09.2020 03:00:00 17,7 14,8 5 3 14 8 SE 0,0
22.09.2020 02:00:00 17,8 14,9 9 5 12 6 SSE 0,0
22.09.2020 01:00:00 17,6 14,5 8 4 11 6 SE 0,0
22.09.2020 00:00:00 17,7 14,2 9 5 14 8 SE 0,0
21.09.2020 23:00:00 18,4 13,5 8 4 12 7 SE 0,0
21.09.2020 22:00:00 18,0 13,9 8 5 15 8 SE 0,0
21.09.2020 21:00:00 17,9 13,6 9 5 16 9 SE 0,0
21.09.2020 20:00:00 18,5 13,6 9 5 21 11 SE 0,0
21.09.2020 19:00:00 19,2 14,0 13 7 34 18 SE 0,0
21.09.2020 18:00:00 19,8 15,9 19 10 33 18 ESE 0,2
21.09.2020 17:00:00 22,5 15,1 7 4 13 7 ESE 0,0
21.09.2020 16:00:00 23,3 14,8 8 4 26 14 WSW 0,0
21.09.2020 15:00:00 22,9 15,2 15 8 32 18 SW 0,0
21.09.2020 14:00:00 23,1 15,9 20 11 33 18 WSW 0,0
21.09.2020 13:00:00 21,8 14,7 21 11 32 17 SW 0,0
21.09.2020 12:00:00 21,4 15,5 14 7 22 12 SW 0,0
21.09.2020 11:00:00 19,7 15,3 15 8 23 12 SW 0,0
21.09.2020 10:00:00 19,6 15,5 10 5 19 11 SSW 0,0
21.09.2020 09:00:00 18,7 15,2 6 4 12 7 SSE 0,0

tt = Température de l'air
td = dewpoint
ff = Vitesse du vent
fx = gusts
dd = Direction du vent
rr = Quantités de précipitations

stations d'obs. à proximité